Latest Weather Observations for Port Hedland

IDW60801

Issued at 2:02 pm WST Sunday 2 August 2015 (issued every 30 minutes, with the page automatically refreshed every 10 minutes)

About weather observations | Map of weather stations | Latest weather observations for WA | Other Formats
Station Details ID: 004032 Name: PORT HEDLAND AIRPORT Lat: -20.37 Lon: 118.63 Height: 6.4 m
Data from the previous 72 hours. | See also: Recent months at Port Hedland
Date/Time
WST
Temp
°C
App
Temp
°C
Dew
Point
Rel
Hum
%
Delta-T
°C
Wind Press
QNH
hPa
Press
MSL
hPa
Rain
since 9 am
mm
Dir
 
Spd
km/h
Gust
km/h
Spd
kts
Gust
kts
02/02:00pm 27.6 24.7 15.1 46 7.6 N 24 28 13 15 1016.8 - 0.0
02/01:30pm 32.3 26.4 1.9 14 15.2 E 22 35 12 19 1016.8 - 0.0
02/01:00pm 31.7 26.4 2.9 16 14.6 ESE 20 30 11 16 1017.0 - 0.0
02/12:30pm 31.6 25.5 3.0 16 14.5 E 24 35 13 19 1017.4 - 0.0
02/12:00pm 30.9 23.3 4.0 18 13.8 E 33 43 18 23 1017.6 1017.6 0.0
02/11:30am 30.4 23.9 4.7 19 13.3 SE 28 41 15 22 1018.0 - 0.0
02/11:00am 29.1 22.6 4.5 21 12.6 ESE 28 41 15 22 1018.5 - 0.0
02/10:30am 28.5 22.1 5.0 22 12.1 SE 28 41 15 22 1018.7 - 0.0
02/10:00am 27.6 21.3 5.5 24 11.4 SE 28 39 15 21 1019.0 - 0.0
02/09:30am 26.8 20.4 5.3 25 11.0 SE 28 43 15 23 1019.0 - 0.0
02/09:00am 25.4 19.0 5.3 27 10.2 SE 28 43 15 23 1018.9 1018.9 0.2
02/08:30am 23.8 18.4 6.2 32 9.0 SSE 24 37 13 20 1018.6 - 0.2
02/08:00am 20.2 16.9 9.5 50 5.7 S 17 22 9 12 1018.5 - 0.2
02/07:30am 17.7 15.5 10.8 64 3.7 S 13 15 7 8 1018.1 - 0.2
02/07:00am 16.4 14.3 11.0 70 2.9 S 13 17 7 9 1017.8 - 0.2
02/06:30am 16.1 14.5 11.5 74 2.5 S 11 15 6 8 1017.5 - 0.2
02/06:00am 16.0 15.3 12.0 77 2.2 S 7 11 4 6 1017.1 1017.1 0.2
02/05:30am 16.5 15.1 12.3 76 2.3 S 11 15 6 8 1016.8 - 0.2
02/05:00am 16.7 14.6 12.5 76 2.3 S 15 19 8 10 1016.5 - 0.2
02/04:30am 17.0 14.7 12.9 77 2.3 S 17 20 9 11 1016.4 - 0.2
02/04:00am 15.9 14.2 12.6 81 1.8 S 13 17 7 9 1016.5 - 0.2
02/03:30am 16.7 15.0 12.5 76 2.3 S 13 19 7 10 1016.6 - 0.2
02/03:00am 17.4 15.0 12.7 74 2.6 S 17 20 9 11 1016.6 1016.6 0.2
02/02:30am 17.7 15.3 12.7 72 2.8 SW 17 20 9 11 1016.5 - 0.2
02/02:00am 17.2 15.9 13.7 80 2.0 SW 13 17 7 9 1016.8 - 0.2
02/01:30am 17.1 16.1 14.7 86 1.4 SW 13 15 7 8 1016.8 - 0.2
02/01:00am 17.0 17.1 15.6 91 0.8 SW 9 11 5 6 1017.0 - 0.2
02/12:30am 17.3 17.2 16.1 93 0.7 WSW 11 13 6 7 1016.8 - 0.2
02/12:00am 18.4 18.6 16.7 90 1.0 W 11 15 6 8 1016.8 1016.8 0.2
 
Date/Time
WST
Temp
°C
App
Temp
°C
Dew
Point
Rel
Hum
%
Delta-T
°C
Wind Press
QNH
hPa
Press
MSL
hPa
Rain
since 9 am
mm
Dir
 
Spd
km/h
Gust
km/h
Spd
kts
Gust
kts
01/11:30pm 18.9 18.9 17.3 90 1.0 W 13 15 7 8 1016.8 - 0.2
01/11:00pm 19.7 19.8 17.4 86 1.4 W 13 17 7 9 1017.0 - 0.2
01/10:30pm 20.4 20.0 18.1 87 1.4 W 17 20 9 11 1017.0 - 0.2
01/10:00pm 20.7 20.8 19.1 90 1.0 W 17 20 9 11 1017.0 - 0.2
01/09:30pm 21.0 21.6 19.4 90 1.0 W 15 20 8 11 1016.9 - 0.2
01/09:00pm 21.0 21.3 19.6 92 0.9 W 17 20 9 11 1017.0 1017.0 0.2
01/08:30pm 21.3 21.5 19.4 89 1.2 W 17 22 9 12 1016.8 - 0.2
01/08:00pm 21.3 21.2 18.7 85 1.6 W 17 20 9 11 1016.7 - 0.2
01/07:30pm 21.6 20.9 18.2 81 2.1 W 19 22 10 12 1016.5 - 0.2
01/07:00pm 21.9 21.1 17.9 78 2.5 WNW 19 22 10 12 1016.2 - 0.2
01/06:30pm 22.4 21.3 17.4 73 3.1 WNW 19 24 10 13 1015.8 - 0.2
01/06:00pm 22.8 21.6 17.6 72 3.2 WNW 20 26 11 14 1015.5 1015.5 0.2
01/05:30pm 23.9 20.9 16.7 64 4.4 WNW 28 33 15 18 1015.3 - 0.2
01/05:00pm 25.5 22.2 15.0 52 6.3 WNW 26 33 14 18 1015.0 - 0.2
01/04:30pm 26.3 22.5 14.6 48 7.0 NW 28 35 15 19 1014.8 - 0.2
01/04:00pm 27.3 23.8 15.5 48 7.2 NW 28 33 15 18 1014.6 - 0.2
01/03:30pm 28.0 24.3 15.0 45 7.9 NW 28 35 15 19 1014.5 - 0.2
01/03:00pm 27.7 24.2 15.6 47 7.4 NW 28 35 15 19 1014.6 1014.6 0.2
01/02:30pm 28.0 25.7 17.7 53 6.5 NW 26 32 14 17 1014.8 - 0.2
01/02:00pm 28.2 25.3 17.0 50 7.0 NW 28 33 15 18 1015.0 - 0.2
01/01:30pm 28.8 26.3 15.2 43 8.3 NW 22 30 12 16 1015.1 - 0.2
01/01:00pm 30.4 26.8 8.2 25 12.2 SW 17 20 9 11 1015.5 - 0.2
01/12:30pm 30.0 26.7 9.7 28 11.4 WSW 17 24 9 13 1016.0 - 0.2
01/12:00pm 28.9 25.7 10.0 30 10.6 SSE 17 24 9 13 1016.5 1016.5 0.2
01/11:30am 28.1 26.7 13.4 40 8.7 SSE 13 22 7 12 1017.0 - 0.2
01/11:00am 26.9 25.2 13.5 43 7.9 S 15 20 8 11 1017.4 - 0.2
01/10:30am 26.4 25.6 15.1 49 6.8 S 13 20 7 11 1017.7 - 0.2
01/10:00am 24.4 24.0 17.1 63 4.5 SW 15 20 8 11 1018.0 - 0.0
01/09:30am 22.5 23.8 19.2 81 2.1 SW 11 15 6 8 1018.0 - 0.0
01/09:12am 20.6 21.9 19.2 92 0.9 WSW 11 15 6 8 1017.9 - 0.0
01/09:00am 20.0 20.9 19.2 95 0.5 WSW 13 15 7 8 1017.7 1017.7 0.0
01/08:57am 19.7 20.5 19.1 96 0.4 SW 13 15 7 8 1017.7 - 0.0
01/08:31am 18.9 19.6 18.9 100 0.0 WSW 13 17 7 9 1017.4 - 0.0
01/08:30am 19.0 19.8 19.0 100 0.0 WSW 13 17 7 9 1017.4 - 0.0
01/08:00am 18.6 20.0 18.6 100 0.0 WSW 9 13 5 7 1017.1 - 0.0
01/07:30am 18.0 18.7 18.0 100 0.0 WSW 11 13 6 7 1016.8 - 0.0
01/07:00am 18.1 19.2 18.1 100 0.0 WSW 9 11 5 6 1016.4 - 0.0
01/06:30am 17.1 19.5 17.1 100 0.0 CALM 0 - 0 - 1016.2 - 0.0
01/06:11am 16.4 18.5 16.2 99 0.1 CALM 0 - 0 - 1016.0 - 0.0
01/06:05am 16.0 18.0 16.0 100 0.0 CALM 0 - 0 - 1015.9 - 0.0
01/06:01am 16.0 18.0 16.0 100 0.0 CALM 0 0 0 0 1015.9 - 0.0
01/06:00am 16.0 18.0 16.0 100 0.0 CALM 0 - 0 - 1015.9 1015.9 0.0
01/05:55am 15.9 17.9 15.9 100 0.0 CALM 0 - 0 - 1015.8 - 0.0
01/05:50am 15.5 17.3 15.5 100 0.0 CALM 0 - 0 - 1015.8 - 0.0
01/05:30am 15.1 16.8 15.1 100 0.0 CALM 0 - 0 - 1015.6 - 0.0
01/05:05am 15.4 17.2 15.4 100 0.0 CALM 0 - 0 - 1015.3 - 0.0
01/05:00am 15.4 17.2 15.4 100 0.0 CALM 0 - 0 - 1015.4 - 0.0
01/04:56am 15.0 16.6 15.0 100 0.0 CALM 0 - 0 - 1015.3 - 0.0
01/04:30am 15.1 16.7 14.9 99 0.1 CALM 0 - 0 - 1015.0 - 0.0
01/04:27am 15.1 16.8 15.1 100 0.0 CALM 0 - 0 - 1015.0 - 0.0
01/04:24am 15.3 17.0 15.1 99 0.1 CALM 0 - 0 - 1015.0 - 0.0
01/04:04am 15.6 17.4 15.6 100 0.0 CALM 0 0 0 0 1015.0 - 0.0
01/04:01am 15.7 17.6 15.7 100 0.0 CALM 0 0 0 0 1015.0 - 0.0
01/04:00am 15.8 17.6 15.6 99 0.1 CALM 0 0 0 0 1015.0 - 0.0
01/03:46am 16.5 17.6 16.5 100 0.0 SW 6 7 3 4 1015.1 - 0.0
01/03:35am 16.4 17.2 16.4 100 0.0 SW 7 9 4 5 1015.2 - 0.0
01/03:30am 16.2 16.9 16.2 100 0.0 SW 7 9 4 5 1015.2 - 0.0
01/03:21am 16.2 16.9 16.2 100 0.0 SW 7 9 4 5 1015.3 - 0.0
01/03:18am 16.2 16.9 16.2 100 0.0 SW 7 9 4 5 1015.3 - 0.0
01/03:04am 16.3 17.3 16.3 100 0.0 SW 6 7 3 4 1015.4 - 0.0
01/03:00am 16.3 17.3 16.3 100 0.0 WSW 6 7 3 4 1015.4 1015.4 0.0
01/02:53am 16.2 16.9 16.2 100 0.0 SW 7 7 4 4 1015.5 - 0.0
01/02:30am 16.3 18.4 16.3 100 0.0 CALM 0 6 0 3 1015.7 - 0.0
01/02:16am 16.5 18.7 16.5 100 0.0 CALM 0 - 0 - 1015.7 - 0.0
01/02:14am 16.5 18.7 16.5 100 0.0 CALM 0 - 0 - 1015.8 - 0.0
01/02:00am 16.7 19.0 16.7 100 0.0 CALM 0 - 0 - 1015.8 - 0.0
01/01:30am 17.2 19.7 17.2 100 0.0 CALM 0 - 0 - 1016.1 - 0.0
01/01:00am 17.3 19.8 17.3 100 0.0 CALM 0 - 0 - 1016.3 - 0.0
01/12:30am 17.3 19.4 17.3 100 0.0 WSW 2 7 1 4 1016.5 - 0.0
01/12:00am 17.2 19.7 17.2 100 0.0 CALM 0 - 0 - 1016.5 1016.5 0.0
 
Date/Time
WST
Temp
°C
App
Temp
°C
Dew
Point
Rel
Hum
%
Delta-T
°C
Wind Press
QNH
hPa
Press
MSL
hPa
Rain
since 9 am
mm
Dir
 
Spd
km/h
Gust
km/h
Spd
kts
Gust
kts
31/11:30pm 16.9 17.5 16.9 100 0.0 WSW 9 9 5 5 1016.7 - 0.0
31/11:00pm 17.0 18.1 17.0 100 0.0 WSW 7 9 4 5 1016.8 - 0.0
31/10:30pm 16.9 17.5 16.9 100 0.0 WSW 9 11 5 6 1016.8 - 0.0
31/10:24pm 17.0 17.7 17.0 100 0.0 WSW 9 9 5 5 1016.7 - 0.0
31/10:03pm 17.2 17.6 17.2 100 0.0 WSW 11 13 6 7 1016.6 - 0.0
31/10:02pm 17.2 18.0 17.2 100 0.0 WSW 9 13 5 7 1016.6 - 0.0
31/10:00pm 17.3 18.1 17.3 100 0.0 WSW 9 11 5 6 1016.6 - 0.0
31/09:58pm 17.4 18.2 17.4 100 0.0 WSW 9 11 5 6 1016.6 - 0.0
31/09:43pm 18.1 18.9 18.1 100 0.0 W 11 13 6 7 1016.6 - 0.0
31/09:30pm 17.8 17.6 17.6 99 0.1 W 15 15 8 8 1016.5 - 0.0
31/09:26pm 17.7 17.8 17.5 99 0.1 W 13 15 7 8 1016.5 - 0.0
31/09:23pm 17.8 18.0 17.6 99 0.1 W 13 15 7 8 1016.5 - 0.0
31/09:00pm 17.7 17.7 17.2 97 0.3 W 13 15 7 8 1016.5 1016.5 0.0
31/08:30pm 18.1 18.2 17.4 96 0.4 WNW 13 15 7 8 1016.2 - 0.0
31/08:00pm 19.1 19.1 18.1 94 0.6 NW 15 15 8 8 1015.9 - 0.0
31/07:30pm 19.5 19.9 18.2 92 0.8 NW 13 15 7 8 1015.7 - 0.0
31/07:00pm 20.2 20.3 18.4 89 1.1 NW 15 15 8 8 1015.4 - 0.0
31/06:30pm 20.9 20.8 17.8 82 1.9 NW 15 17 8 9 1015.0 - 0.0
31/06:00pm 21.9 21.5 17.2 74 2.9 WNW 15 17 8 9 1014.7 1014.7 0.0
31/05:30pm 23.6 21.6 14.9 58 5.2 NW 19 22 10 12 1014.6 - 0.0
31/05:00pm 25.1 21.8 11.5 42 7.7 NW 20 26 11 14 1014.5 - 0.0
31/04:30pm 26.2 23.0 11.4 39 8.4 NW 19 24 10 13 1014.3 - 0.0
31/04:00pm 26.8 22.4 7.2 28 10.4 NNW 20 22 11 12 1014.2 - 0.0
31/03:30pm 27.7 24.9 11.2 35 9.4 NW 17 20 9 11 1014.2 - 0.0
31/03:00pm 28.2 24.1 6.4 25 11.5 NW 17 22 9 12 1014.3 1014.3 0.0
31/02:30pm 28.7 24.7 6.7 25 11.7 NNW 17 24 9 13 1014.6 - 0.0
31/02:00pm 27.6 23.5 7.9 28 10.6 NNW 19 22 10 12 1014.8 - 0.0
31/01:30pm 28.2 24.7 10.2 32 10.1 NW 19 22 10 12 1015.1 - 0.0
31/01:00pm 28.1 24.8 7.9 28 10.9 NNW 15 20 8 11 1015.6 - 0.0
31/12:30pm 29.0 25.4 6.6 24 11.9 NW 15 19 8 10 1016.0 - 0.0
31/12:00pm 27.8 24.6 5.0 23 11.7 NNW 11 17 6 9 1016.5 1016.5 0.0
31/11:30am 27.5 24.9 6.0 25 11.2 NNW 9 13 5 7 1016.8 - 0.0
31/11:00am 26.3 23.8 6.6 28 10.3 NNE 9 13 5 7 1017.3 - 0.0
31/10:30am 24.7 22.2 8.2 35 8.8 NNE 11 15 6 8 1017.8 - 0.0
31/10:00am 23.1 19.9 6.7 34 8.4 N 13 17 7 9 1018.1 - 0.0
31/09:30am 21.6 19.1 11.1 51 5.8 NNE 15 19 8 10 1018.1 - 0.0
31/09:00am 21.8 19.9 9.2 44 6.7 NE 9 15 5 8 1017.8 1017.8 -
31/08:30am 21.1 18.9 7.8 42 6.9 ENE 9 15 5 8 1017.7 - -
31/08:00am 19.4 17.1 7.4 45 6.1 ENE 9 13 5 7 1017.3 - -
31/07:30am 16.5 14.9 8.2 58 4.2 E 6 7 3 4 1017.0 - -
31/07:00am 14.3 12.5 7.8 65 3.2 S 7 11 4 6 1016.5 - -
31/06:30am 14.5 12.4 8.1 65 3.2 S 9 11 5 6 1016.4 - -
31/06:00am 14.7 12.3 8.6 67 3.1 S 11 13 6 7 1016.2 1016.2 -
31/05:30am 15.0 12.3 8.9 67 3.1 S 13 17 7 9 1016.0 - -
31/05:00am 14.7 12.1 9.4 70 2.7 S 13 15 7 8 1015.8 - -
31/04:30am 15.6 12.3 9.6 67 3.1 S 17 20 9 11 1015.8 - -
31/04:00am 15.6 13.3 10.5 71 2.7 S 13 17 7 9 1016.0 - -
31/03:30am 15.5 13.4 11.0 74 2.4 S 13 17 7 9 1016.1 - -
31/03:00am 15.3 13.3 11.6 78 2.0 S 13 15 7 8 1016.4 1016.4 -
31/02:30am 15.8 13.5 11.9 77 2.1 S 15 20 8 11 1016.7 - -
31/02:00am 15.7 13.7 12.6 82 1.7 S 15 20 8 11 1016.9 - -
31/01:30am 15.7 13.2 13.4 86 1.3 S 19 24 10 13 1017.2 - -
31/01:00am 16.0 13.9 13.7 86 1.3 SSW 17 20 9 11 1017.6 - -
31/12:30am 16.6 15.1 14.3 86 1.3 S 15 19 8 10 1017.9 - -
31/12:00am 15.9 14.4 14.3 90 0.9 SSW 15 17 8 9 1018.0 1018.0 -
 
Date/Time
WST
Temp
°C
App
Temp
°C
Dew
Point
Rel
Hum
%
Delta-T
°C
Wind Press
QNH
hPa
Press
MSL
hPa
Rain
since 9 am
mm
Dir
 
Spd
km/h
Gust
km/h
Spd
kts
Gust
kts
30/11:30pm 16.3 15.9 15.1 93 0.7 SSW 11 13 6 7 1018.2 - -
30/11:00pm 16.7 16.2 15.8 94 0.5 SSW 13 13 7 7 1018.6 - -
30/10:30pm 16.7 16.4 15.5 93 0.7 SW 11 13 6 7 1018.6 - -
30/10:00pm 17.1 16.8 16.4 96 0.4 SW 13 13 7 7 1018.8 - -
30/09:30pm 17.5 17.8 16.1 91 0.8 WSW 9 11 5 6 1018.8 - -
30/09:00pm 17.7 17.9 16.7 94 0.6 W 11 13 6 7 1018.8 1018.8 -
30/08:30pm 17.9 17.5 16.2 90 1.0 WNW 13 13 7 7 1018.7 - -
30/08:00pm 18.0 18.0 15.1 83 1.7 WNW 9 11 5 6 1018.6 - -
30/07:30pm 18.9 18.4 15.0 78 2.3 WNW 11 11 6 6 1018.1 - -
30/07:00pm 19.6 19.0 14.6 73 2.9 NW 11 11 6 6 1017.8 - -
30/06:30pm 20.3 19.6 13.1 63 4.1 NNW 9 11 5 6 1017.5 - -
30/06:00pm 22.3 20.5 12.0 52 5.8 N 13 15 7 8 1017.2 1017.2 -
30/05:30pm 24.6 21.6 7.5 33 9.0 N 13 15 7 8 1016.9 - 0.0
30/05:00pm 25.7 22.4 7.9 32 9.5 NNW 15 17 8 9 1016.8 - 0.0
30/04:30pm 26.8 23.4 7.7 29 10.2 NNW 15 17 8 9 1016.9 - 0.0
30/04:00pm 26.8 22.7 6.0 26 10.8 N 17 20 9 11 1016.8 - 0.0
30/03:30pm 27.2 22.6 5.4 25 11.2 N 19 22 10 12 1016.8 - 0.0
30/03:00pm 28.4 23.0 2.7 19 12.7 N 20 26 11 14 1016.9 1016.9 0.0
30/02:30pm 27.6 22.2 4.6 23 11.7 N 22 28 12 15 1017.4 - 0.0

Other Formats:

Comma delimited format used in spreadsheet applications
http://www.bom.gov.au/fwo/IDW60801/IDW60801.94312.axf

JavaScript Object Notation format (JSON) in row-major order
http://www.bom.gov.au/fwo/IDW60801/IDW60801.94312.json